Weather at Hatuey Airport

Public forecast

Using degrees Celsius for public forecast. Weather courtesy of forecast.io.

Closest aviation weather report (METAR) to Hatuey Airport

Closest report is Ignacio Agramonte International Airport, 21.4 nm (39.6 km) NW.

2024/06/14 10:50 (retrieved 26 minutes ago)

MUCM 141050Z VRB01KT 7000 VCFG FEW020 BKN080 25/25 Q1014

Closest aviation forecast (TAF) to Hatuey Airport

Closest forecast is Ignacio Agramonte International Airport, 21.4 nm (39.6 km) NW.

2024/06/14 06:07 (retrieved 5 hours ago)

TAF MUCM 140500Z 1406/1506 VRB04KT 9000 SCT020 TEMPO 1406/1412 5000 BR TEMPO 1419/1424 03008KT BKN020